Time;durP1;ratioP1;P1;durP2;ratioP2;P2;SDS_P1;SDS_P2;PMS_P1;PMS_P2;Temp;Humidity;BMP_temperature;BMP_pressure;BME280_temperature;BME280_humidity;BME280_pressure;Samples;Min_cycle;Max_cycle;Signal;HPM_P1;HPM_P2
2021/12/13 00:01:46;;;;;;;;;;;;;;;9.42;100.00;102384.13;5038007;28;19982;-53
2021/12/13 00:04:18;;;;;;;;;;;;;;;9.39;100.00;102379.00;5036727;28;19932;-51
2021/12/13 00:06:46;;;;;;;;;;;;;;;9.40;100.00;102383.34;5041324;28;19924;-51
2021/12/13 00:09:17;;;;;;;;;;;;;;;9.41;100.00;102379.81;5033678;28;19972;-52
2021/12/13 00:11:45;;;;;;;;;;;;;;;9.43;100.00;102389.31;5045305;28;19935;-51
2021/12/13 00:14:14;;;;;;;;;;;;;;;9.45;100.00;102384.03;5072719;28;19939;-49
2021/12/13 00:16:43;;;;;;;;;;;;;;;9.43;100.00;102385.84;5047732;28;19925;-52
2021/12/13 00:19:14;;;;;;;;;;;;;;;9.43;100.00;102378.81;5046896;28;20018;-52
2021/12/13 00:21:45;;;;;;;;;;;;;;;9.40;100.00;102378.09;5036433;28;19938;-52
2021/12/13 00:24:23;;;;;;;;;;;;;;;9.38;100.00;102379.91;5060804;28;19932;-49
2021/12/13 00:26:50;;;;;;;;;;;;;;;9.35;100.00;102386.13;5038717;28;19925;-52
2021/12/13 00:29:19;;;;;;;;;;;;;;;9.38;100.00;102390.41;5071268;28;19964;-49
2021/12/13 00:32:04;;;;;;;;;;;;;;;9.43;100.00;102391.09;5069630;28;19929;-49
2021/12/13 00:34:36;;;;;;;;;;;;;;;9.40;100.00;102393.84;5058932;28;19972;-52
2021/12/13 00:37:06;;;;;;;;;;;;;;;9.41;100.00;102400.81;5037872;28;19983;-48
2021/12/13 00:39:35;;;;;;;;;;;;;;;9.40;100.00;102404.34;5044187;28;19929;-49
2021/12/13 00:42:02;;;;;;;;;;;;;;;9.40;100.00;102404.34;5037356;28;19972;-48
2021/12/13 00:44:34;;;;;;;;;;;;;;;9.41;100.00;102403.44;5051530;28;19936;-48
2021/12/13 00:47:01;;;;;;;;;;;;;;;9.38;100.00;102407.03;5034101;28;19932;-47
2021/12/13 00:49:28;;;;;;;;;;;;;;;9.35;100.00;102403.66;5075324;28;20011;-48
2021/12/13 00:51:56;;;;;;;;;;;;;;;9.34;100.00;102409.81;5065736;28;19931;-53
2021/12/13 00:54:26;;;;;;;;;;;;;;;9.37;100.00;102420.22;5052909;28;19925;-50
2021/12/13 00:57:03;;;;;;;;;;;;;;;9.38;100.00;102421.91;5051457;28;19939;-55
2021/12/13 00:59:48;;;;;;;;;;;;;;;9.40;100.00;102430.63;5049933;28;19925;-53
2021/12/13 01:02:19;;;;;;;;;;;;;;;9.38;100.00;102424.53;5050420;28;19959;-54
2021/12/13 01:04:55;;;;;;;;;;;;;;;9.36;100.00;102429.00;5047210;28;19933;-52
2021/12/13 01:07:40;;;;;;;;;;;;;;;9.34;100.00;102436.06;5049487;28;20015;-50
2021/12/13 01:10:24;;;;;;;;;;;;;;;9.35;100.00;102437.78;5049290;28;20334;-52
2021/12/13 01:12:53;;;;;;;;;;;;;;;9.33;100.00;102437.00;5049764;28;19929;-49
2021/12/13 01:15:30;;;;;;;;;;;;;;;9.31;100.00;102434.41;5081894;28;19932;-50
2021/12/13 01:20:33;;;;;;;;;;;;;;;9.33;100.00;102435.22;5081275;28;19967;-54
2021/12/13 01:23:05;;;;;;;;;;;;;;;9.27;100.00;102440.66;5049621;28;20307;-52
2021/12/13 01:28:09;;;;;;;;;;;;;;;9.32;100.00;102446.63;5052539;28;20379;-50
2021/12/13 01:30:37;;;;;;;;;;;;;;;9.26;100.00;102444.22;5049969;28;19975;-52
2021/12/13 01:33:06;;;;;;;;;;;;;;;9.23;100.00;102446.94;5047804;28;20311;-52
2021/12/13 01:35:35;;;;;;;;;;;;;;;9.23;100.00;102452.19;5080934;28;19924;-51
2021/12/13 01:38:06;;;;;;;;;;;;;;;9.21;100.00;102447.00;5050927;28;19931;-52
2021/12/13 01:40:34;;;;;;;;;;;;;;;9.23;100.00;102455.69;5052689;28;19928;-51
2021/12/13 01:43:27;;;;;;;;;;;;;;;9.19;100.00;102448.81;5083934;28;20343;-53
2021/12/13 01:45:54;;;;;;;;;;;;;;;9.23;100.00;102460.06;5049804;28;20379;-54
2021/12/13 01:48:22;;;;;;;;;;;;;;;9.15;100.00;102462.97;5047647;28;19924;-49
2021/12/13 01:51:04;;;;;;;;;;;;;;;9.10;100.00;102465.72;5081473;28;19949;-52
2021/12/13 01:53:33;;;;;;;;;;;;;;;9.10;100.00;102467.50;5048254;28;19932;-51
2021/12/13 01:56:01;;;;;;;;;;;;;;;9.12;100.00;102463.91;5049902;28;20402;-51
2021/12/13 02:01:11;;;;;;;;;;;;;;;9.11;100.00;102469.22;5035997;28;19929;-52
2021/12/13 02:03:41;;;;;;;;;;;;;;;9.10;100.00;102465.72;5035051;28;19955;-51
2021/12/13 02:06:08;;;;;;;;;;;;;;;9.08;100.00;102467.56;5041764;28;19925;-52
2021/12/13 02:08:35;;;;;;;;;;;;;;;9.09;100.00;102452.66;5049406;28;19924;-55
2021/12/13 02:11:02;;;;;;;;;;;;;;;9.10;100.00;102455.22;5049244;28;19925;-48
2021/12/13 02:13:37;;;;;;;;;;;;;;;9.10;100.00;102457.00;5051748;28;20015;-51
2021/12/13 02:18:51;;;;;;;;;;;;;;;9.06;100.00;102463.25;5046028;28;20530;-49
2021/12/13 02:21:25;;;;;;;;;;;;;;;9.07;100.00;102457.09;5037974;28;19929;-48
2021/12/13 02:23:54;;;;;;;;;;;;;;;9.03;100.00;102458.97;5040945;28;19929;-51
2021/12/13 02:26:20;;;;;;;;;;;;;;;8.99;100.00;102452.09;5050754;28;19975;-49
2021/12/13 02:28:48;;;;;;;;;;;;;;;9.00;100.00;102452.94;5050133;28;19933;-49
2021/12/13 02:31:19;;;;;;;;;;;;;;;8.99;100.00;102452.09;5041778;28;19929;-48
2021/12/13 02:33:48;;;;;;;;;;;;;;;9.00;100.00;102448.56;5046964;28;19932;-52
2021/12/13 02:36:14;;;;;;;;;;;;;;;9.00;100.00;102458.19;5046520;28;20770;-52
2021/12/13 02:38:42;;;;;;;;;;;;;;;8.99;100.00;102461.75;5046935;28;19931;-53
2021/12/13 02:41:09;;;;;;;;;;;;;;;9.00;100.00;102463.44;5034118;28;19925;-51
2021/12/13 02:43:38;;;;;;;;;;;;;;;8.97;100.00;102464.41;5046302;28;20019;-51
2021/12/13 02:46:05;;;;;;;;;;;;;;;8.96;100.00;102465.34;5043127;28;19936;-52
2021/12/13 02:48:32;;;;;;;;;;;;;;;9.00;100.00;102468.69;5050727;28;19936;-52
2021/12/13 02:51:09;;;;;;;;;;;;;;;8.96;100.00;102468.81;5047359;28;19971;-54
2021/12/13 02:53:36;;;;;;;;;;;;;;;8.98;100.00;102474.00;5037056;28;20372;-51
2021/12/13 02:56:03;;;;;;;;;;;;;;;8.93;100.00;102468.91;5042728;28;20328;-52
2021/12/13 02:58:31;;;;;;;;;;;;;;;8.94;100.00;102472.38;5040198;28;20395;-50
2021/12/13 03:01:05;;;;;;;;;;;;;;;8.95;100.00;102467.06;5047820;28;20395;-49
2021/12/13 03:03:34;;;;;;;;;;;;;;;8.89;100.00;102471.66;5041223;28;20268;-52
2021/12/13 03:06:02;;;;;;;;;;;;;;;8.91;100.00;102465.47;5040493;28;19925;-50
2021/12/13 03:08:33;;;;;;;;;;;;;;;8.92;100.00;102468.97;5044769;28;19925;-53
2021/12/13 03:11:01;;;;;;;;;;;;;;;8.94;100.00;102470.63;5041290;28;19961;-51
2021/12/13 03:13:29;;;;;;;;;;;;;;;8.89;100.00;102469.91;5042656;28;19929;-52
2021/12/13 03:16:01;;;;;;;;;;;;;;;8.87;100.00;102466.47;5045577;28;20338;-52
2021/12/13 03:18:49;;;;;;;;;;;;;;;8.88;100.00;102470.81;5051800;28;19971;-51
2021/12/13 03:21:35;;;;;;;;;;;;;;;8.85;100.00;102460.44;5052300;28;19928;-53
2021/12/13 03:24:09;;;;;;;;;;;;;;;8.87;100.00;102469.09;5055560;28;19925;-54
2021/12/13 03:26:52;;;;;;;;;;;;;;;8.87;100.00;102468.25;5046800;28;19925;-52
2021/12/13 03:29:19;;;;;;;;;;;;;;;8.86;100.00;102467.41;5048416;28;19953;-51
2021/12/13 03:31:54;;;;;;;;;;;;;;;8.87;100.00;102468.25;5054990;28;19971;-50
2021/12/13 03:34:23;;;;;;;;;;;;;;;8.88;100.00;102470.81;5033446;28;19975;-52
2021/12/13 03:36:58;;;;;;;;;;;;;;;8.85;100.00;102460.44;5039988;28;19925;-50
2021/12/13 03:39:33;;;;;;;;;;;;;;;8.84;100.00;102466.56;5043895;28;19933;-51
2021/12/13 03:42:01;;;;;;;;;;;;;;;8.87;100.00;102470.88;5044241;28;19932;-50
2021/12/13 03:44:29;;;;;;;;;;;;;;;8.83;100.00;102467.47;5041294;28;19933;-50
2021/12/13 03:46:59;;;;;;;;;;;;;;;8.77;100.00;102457.19;5039013;28;20507;-50
2021/12/13 03:49:25;;;;;;;;;;;;;;;8.79;100.00;102465.84;5039536;28;20032;-50
2021/12/13 03:51:54;;;;;;;;;;;;;;;8.77;100.00;102463.28;5052843;28;19925;-49
2021/12/13 03:54:21;;;;;;;;;;;;;;;8.82;100.00;102457.91;5053527;28;20338;-48
2021/12/13 03:56:48;;;;;;;;;;;;;;;8.79;100.00;102463.22;5083074;28;19929;-50
2021/12/13 03:59:19;;;;;;;;;;;;;;;8.78;100.00;102469.38;5051145;28;19964;-51
2021/12/13 04:01:57;;;;;;;;;;;;;;;8.75;100.00;102466.88;5053696;28;19925;-47
2021/12/13 04:04:32;;;;;;;;;;;;;;;8.77;100.00;102465.91;5053550;28;19931;-47
2021/12/13 04:07:00;;;;;;;;;;;;;;;8.75;100.00;102467.75;5053558;28;19990;-49
2021/12/13 04:09:27;;;;;;;;;;;;;;;8.76;100.00;102472.06;5053487;28;20322;-50
2021/12/13 04:11:55;;;;;;;;;;;;;;;8.75;100.00;102474.72;5085494;28;19929;-47
2021/12/13 04:14:27;;;;;;;;;;;;;;;8.68;100.00;102475.84;5051536;28;19978;-46
2021/12/13 04:17:05;;;;;;;;;;;;;;;8.64;100.00;102472.44;5081918;28;19932;-52
2021/12/13 04:19:50;;;;;;;;;;;;;;;8.66;100.00;102477.63;5079233;28;20414;-53
2021/12/13 04:22:20;;;;;;;;;;;;;;;8.65;100.00;102470.69;5049873;28;20307;-47
2021/12/13 04:24:48;;;;;;;;;;;;;;;8.62;100.00;102472.50;5050271;28;19929;-50
2021/12/13 04:27:17;;;;;;;;;;;;;;;8.66;100.00;102475.88;5050398;28;20368;-51
2021/12/13 04:29:44;;;;;;;;;;;;;;;8.68;100.00;102470.59;5050246;28;19928;-49
2021/12/13 04:32:34;;;;;;;;;;;;;;;8.58;100.00;102470.88;5050450;28;19933;-49
2021/12/13 04:35:03;;;;;;;;;;;;;;;8.57;100.00;102479.63;5052471;28;19947;-51
2021/12/13 04:37:33;;;;;;;;;;;;;;;8.66;100.00;102469.75;5050401;28;19933;-47
2021/12/13 04:40:01;;;;;;;;;;;;;;;8.58;100.00;102478.75;5049056;28;19925;-51
2021/12/13 04:42:29;;;;;;;;;;;;;;;8.57;100.00;102469.16;5082536;28;20433;-47
2021/12/13 04:45:00;;;;;;;;;;;;;;;8.52;100.00;102475.44;5085356;28;19924;-49
2021/12/13 04:47:32;;;;;;;;;;;;;;;8.53;100.00;102470.16;5085139;28;19929;-49
2021/12/13 04:50:04;;;;;;;;;;;;;;;8.49;100.00;102465.91;5052720;28;19931;-48
2021/12/13 04:52:32;;;;;;;;;;;;;;;8.45;100.00;102466.91;5052906;28;19925;-51
2021/12/13 04:55:00;;;;;;;;;;;;;;;8.40;100.00;102459.16;5051288;28;19928;-52
2021/12/13 04:57:26;;;;;;;;;;;;;;;8.46;100.00;102461.59;5051560;28;19924;-52
2021/12/13 04:59:56;;;;;;;;;;;;;;;8.51;100.00;102466.72;5049973;28;19924;-51
2021/12/13 05:02:23;;;;;;;;;;;;;;;8.55;100.00;102478.84;5064923;28;19933;-52
2021/12/13 05:04:50;;;;;;;;;;;;;;;8.50;100.00;102472.03;5080458;28;19925;-51
2021/12/13 05:07:17;;;;;;;;;;;;;;;8.45;100.00;102477.38;5049547;28;20415;-53
2021/12/13 05:09:45;;;;;;;;;;;;;;;8.44;100.00;102473.03;5050536;28;19925;-52
2021/12/13 05:12:14;;;;;;;;;;;;;;;8.42;100.00;102474.84;5084678;28;19925;-52
2021/12/13 05:14:40;;;;;;;;;;;;;;;8.43;100.00;102473.94;5051283;28;19953;-50
2021/12/13 05:17:09;;;;;;;;;;;;;;;8.41;100.00;102473.13;5049566;28;19925;-50
2021/12/13 05:19:38;;;;;;;;;;;;;;;8.51;100.00;102476.34;5048575;28;20273;-50
2021/12/13 05:22:06;;;;;;;;;;;;;;;8.42;100.00;102473.06;5051241;28;19927;-51
2021/12/13 05:24:35;;;;;;;;;;;;;;;8.43;100.00;102479.19;5052497;28;19971;-52
2021/12/13 05:27:02;;;;;;;;;;;;;;;8.40;100.00;102471.41;5052490;28;20256;-49
2021/12/13 05:29:30;;;;;;;;;;;;;;;8.42;100.00;102467.81;5052532;28;20392;-51
2021/12/13 05:32:18;;;;;;;;;;;;;;;8.39;100.00;102472.31;5051176;28;19964;-50
2021/12/13 05:34:46;;;;;;;;;;;;;;;8.40;100.00;102466.19;5048326;28;19951;-49
2021/12/13 05:37:13;;;;;;;;;;;;;;;8.40;100.00;102469.66;5081528;28;19970;-52
2021/12/13 05:39:55;;;;;;;;;;;;;;;8.40;100.00;102469.66;5049600;28;19925;-54
2021/12/13 05:42:21;;;;;;;;;;;;;;;8.44;100.00;102481.75;5048316;28;20368;-52
2021/12/13 05:44:48;;;;;;;;;;;;;;;8.39;100.00;102483.66;5048774;28;20358;-53
2021/12/13 05:47:22;;;;;;;;;;;;;;;8.41;100.00;102480.97;5072795;28;19979;-51
2021/12/13 05:49:49;;;;;;;;;;;;;;;8.39;100.00;102481.03;5035421;28;19979;-51
2021/12/13 05:52:19;;;;;;;;;;;;;;;8.39;100.00;102477.56;5045720;28;19928;-51
2021/12/13 05:54:46;;;;;;;;;;;;;;;8.38;100.00;102488.94;5041946;28;19932;-52
2021/12/13 05:57:16;;;;;;;;;;;;;;;8.37;100.00;102489.84;5017633;28;19971;-53
2021/12/13 06:00:09;;;;;;;;;;;;;;;8.33;100.00;102486.47;5043232;28;19987;-47
2021/12/13 06:02:40;;;;;;;;;;;;;;;8.34;100.00;102490.78;5054678;28;20364;-50
2021/12/13 06:05:13;;;;;;;;;;;;;;;8.36;100.00;102488.16;5043864;28;19932;-54
2021/12/13 06:07:40;;;;;;;;;;;;;;;8.35;100.00;102489.03;5038655;28;19932;-49
2021/12/13 06:10:15;;;;;;;;;;;;;;;8.34;100.00;102497.81;5046641;28;20031;-51
2021/12/13 06:12:46;;;;;;;;;;;;;;;8.31;100.00;102496.13;5046241;28;19935;-49
2021/12/13 06:15:16;;;;;;;;;;;;;;;8.32;100.00;102492.59;5075210;28;19935;-52
2021/12/13 06:17:51;;;;;;;;;;;;;;;8.29;100.00;102498.78;5049810;28;20396;-52
2021/12/13 06:20:23;;;;;;;;;;;;;;;8.32;100.00;102504.84;5053454;28;19978;-51
2021/12/13 06:22:50;;;;;;;;;;;;;;;8.31;100.00;102501.38;5047520;28;20027;-52
2021/12/13 06:25:18;;;;;;;;;;;;;;;8.27;100.00;102503.22;5040867;28;20068;-51
2021/12/13 06:27:46;;;;;;;;;;;;;;;8.27;100.00;102508.44;5064259;28;20045;-54
2021/12/13 06:30:24;;;;;;;;;;;;;;;8.28;100.00;102504.09;5081157;28;19925;-52
2021/12/13 06:32:59;;;;;;;;;;;;;;;8.23;100.00;102503.34;5050060;28;19928;-52
2021/12/13 06:35:32;;;;;;;;;;;;;;;8.23;100.00;102504.19;5037554;28;19925;-51
2021/12/13 06:38:00;;;;;;;;;;;;;;;8.22;100.00;102512.13;5048738;28;19936;-52
2021/12/13 06:40:27;;;;;;;;;;;;;;;8.25;100.00;102506.81;5042909;28;20434;-49
2021/12/13 06:42:58;;;;;;;;;;;;;;;8.22;100.00;102507.75;5051031;28;20709;-52
2021/12/13 06:45:35;;;;;;;;;;;;;;;8.21;100.00;102515.66;5053850;28;19929;-50
2021/12/13 06:48:03;;;;;;;;;;;;;;;8.21;100.00;102516.50;5072494;28;20272;-53
2021/12/13 06:50:34;;;;;;;;;;;;;;;8.25;100.00;102520.75;5039339;28;19925;-48
2021/12/13 06:53:17;;;;;;;;;;;;;;;8.20;100.00;102525.25;5032514;28;20319;-48
2021/12/13 06:55:44;;;;;;;;;;;;;;;8.23;100.00;102519.94;5032072;28;19968;-48
2021/12/13 06:58:18;;;;;;;;;;;;;;;8.21;100.00;102519.13;5032247;28;19929;-49
2021/12/13 07:00:45;;;;;;;;;;;;;;;8.23;100.00;102514.69;5032166;28;19925;-51
2021/12/13 07:03:19;;;;;;;;;;;;;;;8.21;100.00;102527.00;5030953;28;19975;-49
2021/12/13 07:05:51;;;;;;;;;;;;;;;8.18;100.00;102521.84;5031573;28;19933;-52
2021/12/13 07:08:24;;;;;;;;;;;;;;;8.20;100.00;102535.75;5032096;28;19952;-50
2021/12/13 07:10:55;;;;;;;;;;;;;;;8.16;100.00;102536.75;5034004;28;19933;-52
2021/12/13 07:13:25;;;;;;;;;;;;;;;8.23;100.00;102532.19;5063891;28;19929;-51
2021/12/13 07:16:12;;;;;;;;;;;;;;;8.19;100.00;102543.66;5033736;28;20309;-50
2021/12/13 07:18:55;;;;;;;;;;;;;;;8.13;100.00;102542.94;5030200;28;20463;-50
2021/12/13 07:21:24;;;;;;;;;;;;;;;8.11;100.00;102549.09;5032336;28;19932;-52
2021/12/13 07:23:55;;;;;;;;;;;;;;;8.13;100.00;102553.41;5031987;28;19925;-50
2021/12/13 07:26:39;;;;;;;;;;;;;;;8.12;100.00;102545.59;5031563;28;19925;-48
2021/12/13 07:29:10;;;;;;;;;;;;;;;8.11;100.00;102551.72;5031591;28;20312;-52
2021/12/13 07:31:37;;;;;;;;;;;;;;;8.12;100.00;102545.59;5033490;28;19929;-50
2021/12/13 07:34:13;;;;;;;;;;;;;;;8.12;100.00;102546.44;5029483;28;19925;-47
2021/12/13 07:36:40;;;;;;;;;;;;;;;8.15;100.00;102549.88;5031101;28;20350;-50
2021/12/13 07:39:08;;;;;;;;;;;;;;;8.11;100.00;102551.72;5031542;28;19924;-51
2021/12/13 07:41:54;;;;;;;;;;;;;;;8.10;100.00;102555.28;5050098;28;19936;-49
2021/12/13 07:44:43;;;;;;;;;;;;;;;8.11;100.00;102556.97;5049999;28;19925;-49
2021/12/13 07:47:11;;;;;;;;;;;;;;;8.15;100.00;102558.59;5050238;28;20383;-49
2021/12/13 07:49:42;;;;;;;;;;;;;;;8.12;100.00;102567.41;5048721;28;19963;-50
2021/12/13 07:52:10;;;;;;;;;;;;;;;8.15;100.00;102565.63;5051034;28;19928;-48
2021/12/13 07:54:39;;;;;;;;;;;;;;;8.13;100.00;102568.28;5083375;28;19948;-47
2021/12/13 07:57:14;;;;;;;;;;;;;;;8.10;100.00;102571.00;5085473;28;19931;-46
2021/12/13 07:59:40;;;;;;;;;;;;;;;8.12;100.00;102567.41;5053515;28;19941;-50
2021/12/13 08:02:09;;;;;;;;;;;;;;;8.10;100.00;102569.22;5051146;28;19925;-49
2021/12/13 08:04:36;;;;;;;;;;;;;;;8.07;100.00;102571.06;5049329;28;19978;-52
2021/12/13 08:07:07;;;;;;;;;;;;;;;8.10;100.00;102573.63;5053346;28;19952;-49
2021/12/13 08:09:33;;;;;;;;;;;;;;;8.09;100.00;102582.38;5053739;28;19929;-47
2021/12/13 08:12:07;;;;;;;;;;;;;;;8.11;100.00;102583.19;5085385;28;19931;-51
2021/12/13 08:14:38;;;;;;;;;;;;;;;8.10;100.00;102584.09;5085350;28;19925;-50
2021/12/13 08:17:13;;;;;;;;;;;;;;;8.13;100.00;102587.47;5053176;28;19924;-49
2021/12/13 08:19:39;;;;;;;;;;;;;;;8.08;100.00;102578.88;5053369;28;20423;-51
2021/12/13 08:22:10;;;;;;;;;;;;;;;8.06;100.00;102582.47;5053140;28;19960;-49
2021/12/13 08:24:42;;;;;;;;;;;;;;;8.10;100.00;102581.47;5053134;28;20387;-48
2021/12/13 08:27:34;;;;;;;;;;;;;;;8.08;100.00;102584.13;5085096;28;20446;-51
2021/12/13 08:30:07;;;;;;;;;;;;;;;8.08;100.00;102572.78;5053714;28;19924;-50
2021/12/13 08:32:34;;;;;;;;;;;;;;;8.11;100.00;102575.31;5048896;28;20209;-50
2021/12/13 08:35:04;;;;;;;;;;;;;;;8.05;100.00;102578.97;5048740;28;19928;-51
2021/12/13 08:37:32;;;;;;;;;;;;;;;8.10;100.00;102571.00;5049495;28;20055;-50
2021/12/13 08:40:01;;;;;;;;;;;;;;;8.09;100.00;102572.75;5049814;28;19946;-52
2021/12/13 08:42:29;;;;;;;;;;;;;;;8.07;100.00;102576.28;5049767;28;19933;-49
2021/12/13 08:44:56;;;;;;;;;;;;;;;8.09;100.00;102564.88;5050554;28;19970;-53
2021/12/13 08:47:25;;;;;;;;;;;;;;;8.10;100.00;102568.38;5049457;28;19935;-54
2021/12/13 08:49:54;;;;;;;;;;;;;;;8.07;100.00;102579.78;5081239;28;19925;-51
2021/12/13 08:52:22;;;;;;;;;;;;;;;8.13;100.00;102584.00;5048384;28;19924;-53
2021/12/13 08:54:51;;;;;;;;;;;;;;;8.16;100.00;102580.44;5050254;28;19929;-52
2021/12/13 08:57:32;;;;;;;;;;;;;;;8.15;100.00;102583.97;5052773;28;19986;-51
2021/12/13 09:00:02;;;;;;;;;;;;;;;8.21;100.00;102579.41;5050449;28;20373;-51
2021/12/13 09:02:30;;;;;;;;;;;;;;;8.16;100.00;102581.28;5049329;28;19925;-54
2021/12/13 09:05:03;;;;;;;;;;;;;;;8.19;100.00;102581.19;5080768;28;19928;-54
2021/12/13 09:07:30;;;;;;;;;;;;;;;8.13;100.00;102584.00;5052305;28;20380;-51
2021/12/13 09:09:56;;;;;;;;;;;;;;;8.11;100.00;102584.06;5051120;28;19925;-51
2021/12/13 09:12:33;;;;;;;;;;;;;;;8.17;100.00;102588.25;5050655;28;19975;-51
2021/12/13 09:15:02;;;;;;;;;;;;;;;8.15;100.00;102591.81;5049613;28;19929;-51
2021/12/13 09:17:33;;;;;;;;;;;;;;;8.15;100.00;102603.16;5049222;28;20368;-52
2021/12/13 09:20:06;;;;;;;;;;;;;;;8.19;100.00;102609.19;5048846;28;19951;-52
2021/12/13 09:22:32;;;;;;;;;;;;;;;8.18;100.00;102610.97;5050059;28;19924;-49
2021/12/13 09:25:19;;;;;;;;;;;;;;;8.22;100.00;102606.47;5050034;28;19939;-51
2021/12/13 09:27:49;;;;;;;;;;;;;;;8.20;100.00;102617.00;5085241;28;19925;-50
2021/12/13 09:30:42;;;;;;;;;;;;;;;8.18;100.00;102618.81;5053936;28;19924;-52
2021/12/13 09:33:12;;;;;;;;;;;;;;;8.22;100.00;102622.19;5052888;28;20299;-52
2021/12/13 09:35:58;;;;;;;;;;;;;;;8.24;100.00;102633.53;5052940;28;19925;-53
2021/12/13 09:38:37;;;;;;;;;;;;;;;8.25;100.00;102632.63;5054307;28;19925;-52
2021/12/13 09:41:09;;;;;;;;;;;;;;;8.21;100.00;102637.06;5053393;28;20047;-54
2021/12/13 09:43:38;;;;;;;;;;;;;;;8.23;100.00;102637.88;5087116;28;20408;-52
2021/12/13 09:46:05;;;;;;;;;;;;;;;8.27;100.00;102638.66;5054044;28;20400;-53
2021/12/13 09:48:37;;;;;;;;;;;;;;;8.34;100.00;102634.13;5051695;28;20008;-51
2021/12/13 09:51:06;;;;;;;;;;;;;;;8.28;100.00;102633.38;5055122;28;19931;-51
2021/12/13 09:53:34;;;;;;;;;;;;;;;8.27;100.00;102636.06;5053700;28;19932;-51
2021/12/13 09:56:03;;;;;;;;;;;;;;;8.26;100.00;102645.69;5053022;28;19960;-50
2021/12/13 09:58:38;;;;;;;;;;;;;;;8.29;100.00;102650.84;5052891;28;20427;-50
2021/12/13 10:01:12;;;;;;;;;;;;;;;8.30;100.00;102651.69;5053226;28;19928;-52
2021/12/13 10:03:48;;;;;;;;;;;;;;;8.37;100.00;102652.38;5054684;28;20304;-53
2021/12/13 10:06:16;;;;;;;;;;;;;;;8.31;100.00;102660.44;5055603;28;19924;-48
2021/12/13 10:08:49;;;;;;;;;;;;;;;8.35;100.00;102656.81;5053683;28;19924;-49
2021/12/13 10:11:18;;;;;;;;;;;;;;;8.34;100.00;102649.84;5052870;28;20333;-53
2021/12/13 10:13:45;;;;;;;;;;;;;;;8.35;100.00;102646.34;5051376;28;19929;-51
2021/12/13 10:16:16;;;;;;;;;;;;;;;8.35;100.00;102654.19;5054300;28;20011;-52
2021/12/13 10:18:44;;;;;;;;;;;;;;;8.33;100.00;102653.38;5049603;28;19931;-53
2021/12/13 10:21:14;;;;;;;;;;;;;;;8.34;100.00;102644.63;5083805;28;19925;-51
2021/12/13 10:23:44;;;;;;;;;;;;;;;8.34;100.00;102642.00;5054656;28;19925;-52
2021/12/13 10:26:25;;;;;;;;;;;;;;;8.33;100.00;102641.16;5054993;28;19936;-49
2021/12/13 10:28:58;;;;;;;;;;;;;;;8.36;100.00;102640.19;5052370;28;19931;-52
2021/12/13 10:31:27;;;;;;;;;;;;;;;8.34;100.00;102637.59;5053380;28;19929;-52
2021/12/13 10:33:55;;;;;;;;;;;;;;;8.35;100.00;102633.22;5050793;28;20390;-51
2021/12/13 10:36:21;;;;;;;;;;;;;;;8.40;100.00;102634.81;5051288;28;19924;-51
2021/12/13 10:38:50;;;;;;;;;;;;;;;8.39;100.00;102638.34;5054616;28;20271;-52
2021/12/13 10:41:23;;;;;;;;;;;;;;;8.38;100.00;102634.00;5083644;28;19925;-50
2021/12/13 10:43:54;;;;;;;;;;;;;;;8.42;100.00;102629.53;5052085;28;19932;-52
2021/12/13 10:46:25;;;;;;;;;;;;;;;8.44;100.00;102638.22;5052349;28;19932;-48
2021/12/13 10:48:54;;;;;;;;;;;;;;;8.56;100.00;102640.53;5082578;28;19929;-51
2021/12/13 10:51:32;;;;;;;;;;;;;;;8.46;100.00;102637.28;5051409;28;19924;-50
2021/12/13 10:54:00;;;;;;;;;;;;;;;8.42;100.00;102638.25;5051325;28;19928;-52
2021/12/13 10:56:35;;;;;;;;;;;;;;;8.44;100.00;102640.84;5051681;28;19929;-51
2021/12/13 10:59:03;;;;;;;;;;;;;;;8.47;100.00;102635.53;5051218;28;20376;-52
2021/12/13 11:01:32;;;;;;;;;;;;;;;8.42;100.00;102640.03;5051936;28;19931;-51
2021/12/13 11:04:01;;;;;;;;;;;;;;;8.40;100.00;102634.81;5050117;28;19928;-50
2021/12/13 11:06:27;;;;;;;;;;;;;;;8.41;100.00;102623.44;5054706;28;19924;-53
2021/12/13 11:08:54;;;;;;;;;;;;;;;8.46;100.00;102618.09;5085478;28;19940;-48
2021/12/13 11:11:26;;;;;;;;;;;;;;;8.42;100.00;102627.75;5052120;28;19986;-50
2021/12/13 11:13:55;;;;;;;;;;;;;;;8.44;100.00;102628.59;5084051;28;20453;-51
2021/12/13 11:16:26;;;;;;;;;;;;;;;8.50;100.00;102629.38;5034410;28;20919;-50
2021/12/13 11:18:53;;;;;;;;;;;;;;;8.46;100.00;102628.56;5053249;28;20396;-49
2021/12/13 11:21:23;;;;;;;;;;;;;;;8.50;100.00;102626.75;5052806;28;20559;-53
2021/12/13 11:23:50;;;;;;;;;;;;;;;8.55;100.00;102630.94;5047348;28;19928;-47
2021/12/13 11:26:18;;;;;;;;;;;;;;;8.53;100.00;102626.66;5082153;28;20307;-50
2021/12/13 11:28:44;;;;;;;;;;;;;;;8.52;100.00;102623.19;5049983;28;19929;-53
2021/12/13 11:31:30;;;;;;;;;;;;;;;8.53;100.00;102626.66;5050319;28;19928;-52
2021/12/13 11:34:00;;;;;;;;;;;;;;;8.58;100.00;102620.34;5051178;28;20027;-49
2021/12/13 11:36:27;;;;;;;;;;;;;;;8.59;100.00;102626.47;5054310;28;19940;-49
2021/12/13 11:39:12;;;;;;;;;;;;;;;8.57;100.00;102629.13;5049681;28;20047;-49
2021/12/13 11:42:05;;;;;;;;;;;;;;;8.57;100.00;102628.28;5050985;28;19951;-47
2021/12/13 11:44:50;;;;;;;;;;;;;;;8.55;100.00;102633.56;5056858;28;19948;-48
2021/12/13 11:47:37;;;;;;;;;;;;;;;8.52;100.00;102627.53;5047679;28;19939;-52
2021/12/13 11:50:22;;;;;;;;;;;;;;;8.56;100.00;102632.66;5057883;28;19964;-51
2021/12/13 11:53:07;;;;;;;;;;;;;;;8.58;100.00;102630.84;5051893;28;20299;-49
2021/12/13 11:55:54;;;;;;;;;;;;;;;8.55;100.00;102625.69;5052485;28;20319;-50
2021/12/13 11:58:42;;;;;;;;;;;;;;;8.53;100.00;102622.25;5052280;28;19929;-47
2021/12/13 12:01:21;;;;;;;;;;;;;;;8.53;100.00;102621.41;5049523;28;19924;-50
2021/12/13 12:03:54;;;;;;;;;;;;;;;8.49;100.00;102622.38;5048193;28;20019;-51
2021/12/13 12:06:31;;;;;;;;;;;;;;;8.45;100.00;102619.84;5049293;28;19968;-51
2021/12/13 12:09:13;;;;;;;;;;;;;;;8.43;100.00;102624.25;5049638;28;19952;-52
2021/12/13 12:12:03;;;;;;;;;;;;;;;8.48;100.00;102615.41;5049943;28;19937;-50
2021/12/13 12:14:30;;;;;;;;;;;;;;;8.46;100.00;102611.06;5081703;28;20003;-50
2021/12/13 12:16:58;;;;;;;;;;;;;;;8.55;100.00;102607.34;5052551;28;19925;-53
2021/12/13 12:19:26;;;;;;;;;;;;;;;8.58;100.00;102604.63;5048251;28;19929;-49
2021/12/13 12:21:53;;;;;;;;;;;;;;;8.56;100.00;102606.44;5051026;28;19925;-50
2021/12/13 12:24:24;;;;;;;;;;;;;;;8.61;100.00;102609.78;5053325;28;20387;-49
2021/12/13 12:26:57;;;;;;;;;;;;;;;8.59;100.00;102608.97;5085291;28;20024;-53
2021/12/13 12:29:25;;;;;;;;;;;;;;;8.58;100.00;102609.88;5064551;28;19931;-49
2021/12/13 12:31:57;;;;;;;;;;;;;;;8.57;100.00;102609.91;5049843;28;19925;-51
2021/12/13 12:34:24;;;;;;;;;;;;;;;8.60;100.00;102612.44;5048266;28;20015;-49
2021/12/13 12:36:56;;;;;;;;;;;;;;;8.65;100.00;102612.34;5050900;28;19932;-52
2021/12/13 12:39:23;;;;;;;;;;;;;;;8.63;100.00;102615.84;5052854;28;19928;-53
2021/12/13 12:42:01;;;;;;;;;;;;;;;8.65;100.00;102614.94;5049726;28;19925;-51
2021/12/13 12:44:55;;;;;;;;;;;;;;;8.61;100.00;102620.25;5076570;28;19971;-50
2021/12/13 12:47:42;;;;;;;;;;;;;;;8.58;100.00;102611.66;5048632;28;19928;-53
2021/12/13 12:50:16;;;;;;;;;;;;;;;8.66;100.00;102607.03;5056822;28;19933;-54
2021/12/13 12:52:49;;;;;;;;;;;;;;;8.69;100.00;102617.44;5050081;28;20328;-48
2021/12/13 12:55:17;;;;;;;;;;;;;;;8.70;100.00;102613.91;5084590;28;19948;-53
2021/12/13 12:57:44;;;;;;;;;;;;;;;8.74;100.00;102612.91;5050192;28;20383;-53
2021/12/13 13:00:11;;;;;;;;;;;;;;;8.76;100.00;102624.22;5046136;28;19929;-50
2021/12/13 13:02:47;;;;;;;;;;;;;;;8.67;100.00;102618.38;5050312;28;19978;-47
2021/12/13 13:05:14;;;;;;;;;;;;;;;8.66;100.00;102612.28;5063003;28;19929;-48
2021/12/13 13:07:41;;;;;;;;;;;;;;;8.71;100.00;102615.63;5048782;28;19925;-48
2021/12/13 13:12:48;;;;;;;;;;;;;;;8.75;100.00;102619.91;5048810;28;19935;-52